createdAt,value
2023-04-20T05:31:59.418Z,7.50
2023-04-20T05:34:26.885Z,9.93
2023-04-20T05:36:54.973Z,7.45
2023-04-20T05:39:22.484Z,7.32
2023-04-20T05:41:49.913Z,9.98
2023-04-20T05:44:17.367Z,10.80
2023-04-20T05:46:44.859Z,9.93
2023-04-20T05:49:12.363Z,8.40
2023-04-20T05:51:40.321Z,9.77
2023-04-20T05:54:07.881Z,7.75
2023-04-20T05:56:37.307Z,11.10
2023-04-20T05:59:04.845Z,8.95
2023-04-20T06:01:32.350Z,7.93
2023-04-20T06:03:59.848Z,6.57
2023-04-20T06:06:27.996Z,7.97
2023-04-20T06:08:56.092Z,6.45
2023-04-20T06:11:23.735Z,9.40
2023-04-20T06:13:51.195Z,11.57
2023-04-20T06:16:24.083Z,15.80
2023-04-20T06:18:52.204Z,7.72
2023-04-20T06:21:24.874Z,9.57
2023-04-20T06:23:53.014Z,5.90
2023-04-20T06:26:20.844Z,7.47
2023-04-20T06:28:49.185Z,8.45
2023-04-20T06:31:17.312Z,8.73
2023-04-20T06:33:44.670Z,6.07
2023-04-20T06:36:12.181Z,7.60
2023-04-20T06:38:40.810Z,6.25
2023-04-20T06:41:08.229Z,4.88
2023-04-20T06:43:35.673Z,10.02
2023-04-20T06:46:02.967Z,9.70
2023-04-20T06:48:32.622Z,6.05
2023-04-20T06:51:01.138Z,7.40
2023-04-20T06:53:28.219Z,7.30
2023-04-20T06:55:56.020Z,8.90
2023-04-20T06:58:23.983Z,7.70
2023-04-20T07:00:51.563Z,9.90
2023-04-20T07:03:19.690Z,6.75
2023-04-20T07:05:47.381Z,7.90
2023-04-20T07:08:16.070Z,12.38
2023-04-20T07:10:44.005Z,7.18
2023-04-20T07:13:11.153Z,9.60
2023-04-20T07:15:38.846Z,8.88
2023-04-20T07:18:06.650Z,9.63
2023-04-20T07:20:34.276Z,7.57
2023-04-20T07:23:02.215Z,8.23
2023-04-20T07:25:32.882Z,4.03
2023-04-20T07:28:00.585Z,8.55
2023-04-20T07:30:28.074Z,9.77
2023-04-20T07:32:55.696Z,8.40
2023-04-20T07:35:23.479Z,8.25
2023-04-20T07:37:51.089Z,9.52
2023-04-20T07:40:18.798Z,8.55
2023-04-20T07:42:46.474Z,9.07
2023-04-20T07:45:14.394Z,6.22
2023-04-20T07:47:44.151Z,6.13
2023-04-20T07:50:11.766Z,10.63
2023-04-20T07:52:39.642Z,10.27
2023-04-20T07:55:08.453Z,9.85
2023-04-20T07:57:37.466Z,7.25
2023-04-20T08:00:07.892Z,7.72
2023-04-20T08:02:36.733Z,7.22
2023-04-20T08:05:06.420Z,13.73
2023-04-20T08:07:34.968Z,7.88
2023-04-20T08:10:03.123Z,8.63
2023-04-20T08:12:31.228Z,7.43
2023-04-20T08:15:02.737Z,6.80
2023-04-20T08:17:31.604Z,10.82
2023-04-20T08:20:00.220Z,6.28
2023-04-20T08:22:30.185Z,7.93
2023-04-20T08:24:58.727Z,8.95
2023-04-20T08:27:29.844Z,9.23
2023-04-20T08:29:58.092Z,13.07
2023-04-20T08:32:27.183Z,13.35
2023-04-20T08:34:56.562Z,7.75
2023-04-20T08:37:25.741Z,9.70
2023-04-20T08:39:53.545Z,9.18
2023-04-20T08:42:21.629Z,10.57
2023-04-20T08:44:49.292Z,7.97
2023-04-20T08:47:16.901Z,7.30
2023-04-20T08:49:45.862Z,7.95
2023-04-20T08:52:14.282Z,10.10
2023-04-20T08:54:55.120Z,15.55
2023-04-20T08:57:24.738Z,11.05
2023-04-20T08:59:52.538Z,26.27
2023-04-20T09:02:20.219Z,8.90
2023-04-20T09:04:49.427Z,10.20
2023-04-20T09:07:19.027Z,8.85
2023-04-20T09:09:56.929Z,14.23
2023-04-20T09:12:25.083Z,12.88
2023-04-20T09:14:53.586Z,10.52
2023-04-20T09:17:37.722Z,11.02
2023-04-20T09:20:06.691Z,11.90
2023-04-20T09:22:38.349Z,14.13
2023-04-20T09:25:19.239Z,13.60
2023-04-20T09:28:01.985Z,13.43
2023-04-20T09:30:50.984Z,11.50
2023-04-20T09:33:19.643Z,16.30
2023-04-20T09:35:48.345Z,14.68
2023-04-20T09:38:17.478Z,12.45
2023-04-20T09:40:46.408Z,11.48
2023-04-20T09:43:20.213Z,17.02
2023-04-20T09:45:49.303Z,10.20
2023-04-20T09:48:19.744Z,9.50
2023-04-20T09:50:51.021Z,12.80
2023-04-20T09:53:25.751Z,16.67
2023-04-20T09:55:56.730Z,10.90
2023-04-20T09:58:25.071Z,12.30
2023-04-20T10:00:54.336Z,10.63
2023-04-20T10:03:22.159Z,10.57
2023-04-20T10:05:56.277Z,14.75
2023-04-20T10:08:26.836Z,12.85
2023-04-20T10:10:56.502Z,11.27
2023-04-20T10:13:35.584Z,10.57
2023-04-20T10:16:04.783Z,12.55
2023-04-20T10:18:32.967Z,15.82
2023-04-20T10:21:09.758Z,13.23
2023-04-20T10:23:51.243Z,12.02
2023-04-20T10:26:18.972Z,14.73
2023-04-20T10:28:46.620Z,15.55
2023-04-20T10:31:17.530Z,8.55
2023-04-20T10:33:55.450Z,12.82
2023-04-20T10:36:42.764Z,13.73
2023-04-20T10:39:20.010Z,13.60
2023-04-20T10:41:56.133Z,10.55
2023-04-20T10:44:24.121Z,16.10
2023-04-20T10:46:52.368Z,18.15
2023-04-20T10:49:20.797Z,14.23
2023-04-20T10:51:52.491Z,18.20
2023-04-20T10:54:20.305Z,13.48
2023-04-20T10:56:49.515Z,16.38
2023-04-20T10:59:19.456Z,16.23
2023-04-20T11:01:47.933Z,13.93
2023-04-20T11:04:18.405Z,12.65
2023-04-20T11:06:48.611Z,16.15
2023-04-20T11:09:20.727Z,19.02
2023-04-20T11:11:59.049Z,16.33
2023-04-20T11:14:27.043Z,9.48
2023-04-20T11:16:54.923Z,18.00
2023-04-20T11:19:32.144Z,13.15
2023-04-20T11:22:00.075Z,14.18
2023-04-20T11:24:32.926Z,11.40
2023-04-20T11:29:29.855Z,23.70
2023-04-20T11:31:57.974Z,12.52
2023-04-20T11:34:25.870Z,14.85
2023-04-20T11:36:56.601Z,13.70
2023-04-20T11:39:25.463Z,13.90
2023-04-20T11:41:53.391Z,21.63
2023-04-20T11:44:21.344Z,14.23
2023-04-20T11:46:49.536Z,13.38
2023-04-20T11:49:17.564Z,15.32
2023-04-20T11:51:46.476Z,15.73
2023-04-20T11:54:14.724Z,14.38
2023-04-20T11:56:42.778Z,14.70
2023-04-20T11:59:10.786Z,16.25
2023-04-20T12:01:38.372Z,19.13
2023-04-20T12:04:06.532Z,12.40
2023-04-20T12:06:34.408Z,15.50
2023-04-20T12:09:02.337Z,19.70
2023-04-20T12:11:29.907Z,12.70
2023-04-20T12:13:57.238Z,13.52
2023-04-20T12:16:25.061Z,13.23
2023-04-20T12:18:52.793Z,12.43
2023-04-20T12:21:20.750Z,14.93
2023-04-20T12:23:51.096Z,15.25
2023-04-20T12:26:18.748Z,11.70
2023-04-20T12:28:46.853Z,12.25
2023-04-20T12:31:14.860Z,11.50
2023-04-20T12:33:43.727Z,12.05
2023-04-20T12:36:11.444Z,12.52
2023-04-20T12:38:39.216Z,10.40
2023-04-20T12:41:06.835Z,13.88
2023-04-20T12:43:33.947Z,14.98
2023-04-20T12:46:01.728Z,15.38
2023-04-20T12:48:29.181Z,15.25
2023-04-20T12:50:56.982Z,20.45
2023-04-20T12:53:24.402Z,15.75
2023-04-20T12:56:00.427Z,15.63
2023-04-20T12:58:28.547Z,16.17
2023-04-20T13:00:56.167Z,19.08
2023-04-20T13:03:23.874Z,24.63
2023-04-20T13:05:51.512Z,18.88
2023-04-20T13:08:19.891Z,12.60
2023-04-20T13:10:47.414Z,20.08
2023-04-20T13:13:14.919Z,17.02
2023-04-20T13:15:42.394Z,14.57
2023-04-20T13:18:10.340Z,13.77
2023-04-20T13:20:38.150Z,21.77
2023-04-20T13:23:05.840Z,28.83
2023-04-20T13:25:33.515Z,27.10
2023-04-20T13:28:02.081Z,19.48
2023-04-20T13:30:29.673Z,11.45
2023-04-20T13:32:57.991Z,15.05
2023-04-20T13:35:26.060Z,19.52
2023-04-20T13:37:54.644Z,18.23
2023-04-20T13:40:22.367Z,16.27
2023-04-20T13:42:49.895Z,13.00
2023-04-20T13:45:17.715Z,18.58
2023-04-20T13:47:45.254Z,13.38
2023-04-20T13:50:12.789Z,17.83
2023-04-20T13:52:40.309Z,17.10
2023-04-20T13:55:07.830Z,14.63
2023-04-20T13:57:35.185Z,18.92
2023-04-20T14:00:02.946Z,12.55
2023-04-20T14:02:30.867Z,14.98
2023-04-20T14:04:58.176Z,14.48
2023-04-20T14:07:25.839Z,15.23
2023-04-20T14:09:56.432Z,21.38
2023-04-20T14:12:24.171Z,16.63
2023-04-20T14:14:52.064Z,17.35
2023-04-20T14:17:19.734Z,14.70
2023-04-20T14:19:47.744Z,16.45
2023-04-20T14:22:15.228Z,12.60
2023-04-20T14:24:45.271Z,19.38
2023-04-20T14:27:12.845Z,18.17
2023-04-20T14:29:40.437Z,17.60
2023-04-20T14:32:07.986Z,19.50
2023-04-20T14:34:35.189Z,21.42
2023-04-20T14:37:02.800Z,17.25
2023-04-20T14:39:30.453Z,16.48
2023-04-20T14:41:57.571Z,14.38
2023-04-20T14:44:25.189Z,29.20
2023-04-20T14:46:53.209Z,16.52
2023-04-20T14:49:20.850Z,14.73
2023-04-20T14:51:48.348Z,17.95
2023-04-20T14:54:16.194Z,19.85
2023-04-20T14:56:43.953Z,16.58
2023-04-20T14:59:11.526Z,19.00
2023-04-20T15:01:43.456Z,14.57
2023-04-20T15:04:19.336Z,15.65
2023-04-20T15:06:47.160Z,18.10
2023-04-20T15:09:15.001Z,14.73
2023-04-20T15:11:42.436Z,17.55
2023-04-20T15:14:09.967Z,53.47
2023-04-20T15:16:37.570Z,33.28
2023-04-20T15:19:05.095Z,21.75
2023-04-20T15:21:32.682Z,13.48
2023-04-20T15:24:00.245Z,18.67
2023-04-20T15:26:27.765Z,15.80
2023-04-20T15:28:55.245Z,19.80
2023-04-20T15:31:23.043Z,21.48
2023-04-20T15:33:50.594Z,20.65
2023-04-20T15:36:19.448Z,24.27
2023-04-20T15:38:47.292Z,23.17
2023-04-20T15:41:16.536Z,21.20
2023-04-20T15:43:44.279Z,19.73
2023-04-20T15:46:11.788Z,21.30
2023-04-20T15:48:39.281Z,21.73
2023-04-20T15:51:06.828Z,21.83
2023-04-20T15:53:34.423Z,20.30
2023-04-20T15:56:01.658Z,17.35
2023-04-20T15:58:29.287Z,22.50
